Time;durP1;ratioP1;P1;durP2;ratioP2;P2;SDS_P1;SDS_P2;PMS_P1;PMS_P2;Temp;Humidity;BMP_temperature;BMP_pressure;BME280_temperature;BME280_humidity;BME280_pressure;Samples;Min_cycle;Max_cycle;Signal;HPM_P1;HPM_P2
2023/01/19 00:01:08;;;;;;;19.20;8.10;;;;;;;;;;106375;1286;22556;-80
2023/01/19 00:11:00;;;;;;;12.20;5.40;;;;;;;;;;106319;1277;22567;-83
2023/01/19 00:14:41;;;;;;;8.90;3.60;;;;;;;;;;106336;1285;22542;-81
2023/01/19 00:18:01;;;;;;;7.70;2.80;;;;;;;;;;106719;1280;23927;-79
2023/01/19 00:20:53;;;;;;;9.70;3.70;;;;;;;;;;106822;1279;26485;-82
2023/01/19 00:24:12;;;;;;;6.90;2.80;;;;;;;;;;106783;1268;22644;-80
2023/01/19 00:27:48;;;;;;;7.70;3.20;;;;;;;;;;106493;1285;24534;-81
2023/01/19 00:30:30;;;;;;;7.30;2.80;;;;;;;;;;106174;1273;22704;-82
2023/01/19 00:33:32;;;;;;;7.60;2.70;;;;;;;;;;106487;1282;24226;-80
2023/01/19 00:36:33;;;;;;;8.80;3.80;;;;;;;;;;106378;1285;22529;-78
2023/01/19 00:39:32;;;;;;;8.30;3.50;;;;;;;;;;106376;1285;25256;-77
2023/01/19 00:42:47;;;;;;;7.20;2.60;;;;;;;;;;106427;1285;22554;-81
2023/01/19 00:45:56;;;;;;;6.60;2.40;;;;;;;;;;106569;1281;22624;-77
2023/01/19 00:49:49;;;;;;;8.40;3.30;;;;;;;;;;106717;1281;25337;-76
2023/01/19 00:53:17;;;;;;;7.10;2.70;;;;;;;;;;106549;1271;25259;-79
2023/01/19 00:55:59;;;;;;;6.10;2.60;;;;;;;;;;106516;1282;22544;-81
2023/01/19 00:58:56;;;;;;;7.30;2.60;;;;;;;;;;106533;1282;23931;-81
2023/01/19 01:01:59;;;;;;;;;;;;;;;;;;;;;
2023/01/19 01:05:40;;;;;;;7.80;2.70;;;;;;;;;;107172;1274;22629;-84
2023/01/19 01:08:34;;;;;;;;;;;;;;;;;;;;;
2023/01/19 01:11:34;;;;;;;7.00;2.90;;;;;;;;;;107222;1256;22656;-83
2023/01/19 01:15:07;;;;;;;7.30;3.10;;;;;;;;;;107047;1275;22572;-78
2023/01/19 01:17:35;;;;;;;7.20;3.20;;;;;;;;;;107125;1275;23938;-77
2023/01/19 01:20:06;;;;;;;7.00;3.20;;;;;;;;;;107153;1275;22486;-77
2023/01/19 01:23:30;;;;;;;7.40;2.40;;;;;;;;;;107179;1261;22554;-82
2023/01/19 01:26:48;;;;;;;7.30;2.90;;;;;;;;;;107221;1274;25344;-80
2023/01/19 01:29:47;;;;;;;7.70;3.30;;;;;;;;;;107146;1274;22628;-80
2023/01/19 01:33:33;;;;;;;7.60;2.90;;;;;;;;;;107127;1257;22530;-81
2023/01/19 01:36:43;;;;;;;6.90;2.80;;;;;;;;;;106929;1275;22534;-78
2023/01/19 01:39:27;;;;;;;7.70;2.50;;;;;;;;;;107202;1275;25360;-81
2023/01/19 01:49:43;;;;;;;7.20;2.20;;;;;;;;;;106786;1281;22718;-80
2023/01/19 01:53:11;;;;;;;5.60;2.00;;;;;;;;;;106233;1270;24844;-81
2023/01/19 01:56:13;;;;;;;5.00;1.90;;;;;;;;;;105918;1292;22616;-84
2023/01/19 01:59:46;;;;;;;5.80;2.30;;;;;;;;;;105874;1292;22564;-78
2023/01/19 02:05:28;;;;;;;5.40;2.00;;;;;;;;;;105879;1292;25284;-78
2023/01/19 02:15:12;;;;;;;;;;;;;;;;;;;;;
2023/01/19 02:18:15;;;;;;;6.70;2.60;;;;;;;;;;105962;1292;23926;-78
2023/01/19 02:25:30;;;;;;;;;;;;;;;;;;;;;
2023/01/19 02:32:04;;;;;;;;;;;;;;;;;;;;;
2023/01/19 02:38:37;;;;;;;5.10;2.00;;;;;;;;;;106331;1286;25079;-79
2023/01/19 02:42:00;;;;;;;6.40;2.70;;;;;;;;;;105953;1290;25533;-77
2023/01/19 02:45:08;;;;;;;;;;;;;;;;;;;;;
2023/01/19 02:47:56;;;;;;;5.10;2.00;;;;;;;;;;105987;1289;25494;-80
2023/01/19 02:51:16;;;;;;;5.00;1.90;;;;;;;;;;106021;1289;24205;-80
2023/01/19 02:54:14;;;;;;;;;;;;;;;;;;;;;
2023/01/19 02:57:43;;;;;;;;;;;;;;;;;;;;;
2023/01/19 03:01:22;;;;;;;;;;;;;;;;;;;;;
2023/01/19 03:04:59;;;;;;;5.90;2.20;;;;;;;;;;105778;1270;22546;-78
2023/01/19 03:07:59;;;;;;;6.10;2.40;;;;;;;;;;106353;1286;24311;-80
2023/01/19 03:11:02;;;;;;;7.30;3.30;;;;;;;;;;106420;1286;24256;-79
2023/01/19 03:14:22;;;;;;;;;;;;;;;;;;;;;
2023/01/19 03:17:47;;;;;;;7.10;3.10;;;;;;;;;;106442;1264;24490;-78
2023/01/19 03:20:52;;;;;;;;;;;;;;;;;;;;;
2023/01/19 03:24:05;;;;;;;7.60;2.90;;;;;;;;;;106454;1284;22567;-83
2023/01/19 03:27:15;;;;;;;6.20;2.80;;;;;;;;;;106499;1264;24270;-78
2023/01/19 03:30:28;;;;;;;7.90;3.10;;;;;;;;;;106460;1283;25639;-80
2023/01/19 03:36:38;;;;;;;;;;;;;;;;;;;;;
2023/01/19 03:39:38;;;;;;;7.50;3.20;;;;;;;;;;107153;1275;23305;-83
2023/01/19 03:42:44;;;;;;;;;;;;;;;;;;;;;
2023/01/19 03:49:57;;;;;;;7.40;3.20;;;;;;;;;;107177;1274;22538;-77
2023/01/19 03:52:45;;;;;;;;;;;;;;;;;;;;;
2023/01/19 03:55:55;;;;;;;7.40;3.40;;;;;;;;;;107153;1253;23373;-77
2023/01/19 03:59:16;;;;;;;;;;;;;;;;;;;;;
2023/01/19 04:02:26;;;;;;;6.60;2.90;;;;;;;;;;107205;1275;22495;-78
2023/01/19 04:06:10;;;;;;;7.10;3.20;;;;;;;;;;107186;1272;25246;-79
2023/01/19 04:12:54;;;;;;;7.60;2.70;;;;;;;;;;106748;1281;22540;-82
2023/01/19 04:15:58;;;;;;;7.30;3.20;;;;;;;;;;106759;1273;25367;-81
2023/01/19 04:22:49;;;;;;;7.10;3.30;;;;;;;;;;106052;1283;24259;-80
2023/01/19 04:25:44;;;;;;;;;;;;;;;;;;;;;
2023/01/19 04:28:54;;;;;;;;;;;;;;;;;;;;;
2023/01/19 04:32:10;;;;;;;7.40;3.20;;;;;;;;;;105284;1299;25382;-82
2023/01/19 04:35:27;;;;;;;;;;;;;;;;;;;;;
2023/01/19 04:38:14;;;;;;;7.50;3.30;;;;;;;;;;107755;1288;22207;-78
2023/01/19 04:40:41;;;;;;;10.60;4.10;;;;;;;;;;107900;1298;22175;-78
2023/01/19 04:43:28;;;;;;;11.00;4.20;;;;;;;;;;107719;1306;22229;-78
2023/01/19 04:47:00;;;;;;;8.80;3.40;;;;;;;;;;108441;1300;23048;-78
2023/01/19 04:49:57;;;;;;;;;;;;;;;;;;;;;
2023/01/19 04:52:47;;;;;;;10.80;5.00;;;;;;;;;;108416;1295;22129;-78
2023/01/19 04:55:15;;;;;;;11.10;5.10;;;;;;;;;;108388;1300;22409;-78
2023/01/19 04:57:58;;;;;;;10.90;5.60;;;;;;;;;;108415;1272;22092;-78
2023/01/19 05:01:07;;;;;;;;;;;;;;;;;;;;;
2023/01/19 05:04:25;;;;;;;;;;;;;;;;;;;;;
2023/01/19 05:07:02;;;;;;;12.40;5.80;;;;;;;;;;109655;1289;22137;-78
2023/01/19 05:09:57;;;;;;;12.70;5.40;;;;;;;;;;110057;1263;22868;-78
2023/01/19 05:12:49;;;;;;;;;;;;;;;;;;;;;
2023/01/19 05:15:38;;;;;;;13.40;5.40;;;;;;;;;;110423;1274;22978;-78
2023/01/19 05:18:35;;;;;;;;;;;;;;;;;;;;;
2023/01/19 05:26:03;;;;;;;9.30;3.60;;;;;;;;;;110113;1280;22067;-78
2023/01/19 05:32:24;;;;;;;8.10;2.80;;;;;;;;;;109945;1265;22173;-78
2023/01/19 05:49:47;;;;;;;6.10;2.20;;;;;;;;;;108686;1295;22194;-78
2023/01/19 05:52:27;;;;;;;;;;;;;;;;;;;;;
2023/01/19 05:55:54;;;;;;;7.40;2.20;;;;;;;;;;108716;1299;22183;-78
2023/01/19 05:58:32;;;;;;;8.80;2.80;;;;;;;;;;108497;1295;22063;-79
2023/01/19 06:01:29;;;;;;;8.30;2.90;;;;;;;;;;108869;1272;22186;-78
2023/01/19 06:04:01;;;;;;;11.70;3.50;;;;;;;;;;109463;1288;21998;-78
2023/01/19 06:21:50;;;;;;;;;;;;;;;;;;;;;
2023/01/19 06:25:18;;;;;;;16.10;5.60;;;;;;;;;;109370;1279;22960;-84
2023/01/19 06:32:33;;;;;;;17.10;6.30;;;;;;;;;;108477;1301;22290;-76
2023/01/19 06:36:27;;;;;;;15.90;6.10;;;;;;;;;;108223;1284;22233;-76
2023/01/19 06:46:24;;;;;;;13.80;7.10;;;;;;;;;;107530;1292;22201;-75
2023/01/19 06:48:53;;;;;;;16.10;5.60;;;;;;;;;;107586;1308;22259;-76
2023/01/19 06:51:25;;;;;;;11.40;5.00;;;;;;;;;;107518;1308;23167;-75
2023/01/19 06:57:43;;;;;;;14.40;5.50;;;;;;;;;;107929;1282;22197;-75
2023/01/19 07:00:15;;;;;;;9.60;4.30;;;;;;;;;;107917;1305;22104;-75
2023/01/19 07:06:56;;;;;;;10.60;3.50;;;;;;;;;;108449;1280;22289;-74
2023/01/19 07:16:46;;;;;;;8.30;2.60;;;;;;;;;;108911;1273;22951;-74
2023/01/19 07:19:14;;;;;;;16.00;4.00;;;;;;;;;;109146;1292;22230;-75
2023/01/19 07:21:44;;;;;;;16.20;4.70;;;;;;;;;;109370;1292;22357;-74
2023/01/19 07:28:41;;;;;;;12.80;4.20;;;;;;;;;;109386;1269;22169;-73
2023/01/19 07:31:08;;;;;;;13.70;4.90;;;;;;;;;;109224;1292;22160;-74
2023/01/19 07:33:35;;;;;;;15.70;5.10;;;;;;;;;;109386;1292;22141;-73
2023/01/19 07:36:04;;;;;;;20.20;5.20;;;;;;;;;;109377;1292;22309;-74
2023/01/19 07:38:31;;;;;;;19.80;4.90;;;;;;;;;;109670;1271;22795;-74
2023/01/19 07:40:59;;;;;;;14.70;5.00;;;;;;;;;;109499;1292;22196;-73
2023/01/19 07:43:30;;;;;;;17.50;5.10;;;;;;;;;;109654;1287;22382;-74
2023/01/19 07:46:00;;;;;;;13.30;4.20;;;;;;;;;;109775;1287;22172;-74
2023/01/19 07:48:31;;;;;;;15.60;4.40;;;;;;;;;;109854;1269;22385;-73
2023/01/19 07:51:04;;;;;;;15.90;4.80;;;;;;;;;;110035;1282;22172;-74
2023/01/19 07:53:31;;;;;;;14.20;4.70;;;;;;;;;;109991;1282;22096;-74
2023/01/19 07:56:10;;;;;;;;;;;;;;;;;;;;;
2023/01/19 07:58:37;;;;;;;17.40;5.60;;;;;;;;;;110512;1260;22930;-73
2023/01/19 08:01:30;;;;;;;23.10;6.70;;;;;;;;;;110356;1278;22122;-74
2023/01/19 08:03:54;;;;;;;31.60;11.20;;;;;;;;;;110222;1278;22131;-73
2023/01/19 08:17:35;;;;;;;29.80;10.60;;;;;;;;;;110183;1278;22137;-74
2023/01/19 08:31:03;;;;;;;10.90;3.90;;;;;;;;;;110781;1257;22144;-75
2023/01/19 08:33:40;;;;;;;;;;;;;;;;;;;;;
2023/01/19 08:40:58;;;;;;;;;;;;;;;;;;;;;
2023/01/19 08:43:33;;;;;;;20.10;5.70;;;;;;;;;;110086;1281;22150;-75
2023/01/19 08:45:59;;;;;;;16.00;5.90;;;;;;;;;;110042;1281;22955;-75
2023/01/19 08:52:14;;;;;;;14.90;4.70;;;;;;;;;;109874;1264;22152;-75
2023/01/19 08:54:41;;;;;;;13.10;4.70;;;;;;;;;;109750;1287;22163;-75
2023/01/19 08:57:07;;;;;;;15.00;5.50;;;;;;;;;;109785;1287;22159;-75
2023/01/19 08:59:37;;;;;;;15.00;4.80;;;;;;;;;;109777;1287;22101;-75
2023/01/19 09:02:04;;;;;;;20.00;4.90;;;;;;;;;;109950;1267;22228;-75
2023/01/19 09:04:33;;;;;;;17.30;3.80;;;;;;;;;;109767;1287;21953;-75
2023/01/19 09:07:00;;;;;;;14.10;4.20;;;;;;;;;;109782;1287;22223;-75
2023/01/19 09:09:26;;;;;;;15.60;3.90;;;;;;;;;;109762;1287;22939;-75
2023/01/19 09:11:54;;;;;;;13.10;4.30;;;;;;;;;;109921;1265;22177;-75
2023/01/19 09:14:52;;;;;;;;;;;;;;;;;;;;;
2023/01/19 09:21:40;;;;;;;11.40;3.00;;;;;;;;;;109695;1267;22806;-75
2023/01/19 09:24:38;;;;;;;;;;;;;;;;;;;;;
2023/01/19 09:31:29;;;;;;;9.80;3.70;;;;;;;;;;110117;1256;22783;-75
2023/01/19 09:33:56;;;;;;;15.10;5.30;;;;;;;;;;110116;1279;22207;-75
2023/01/19 09:36:26;;;;;;;11.60;4.40;;;;;;;;;;110229;1279;22103;-75
2023/01/19 09:43:38;;;;;;;13.90;3.80;;;;;;;;;;109887;1267;22948;-76
2023/01/19 09:46:28;;;;;;;;;;;;;;;;;;;;;
2023/01/19 09:49:14;;;;;;;9.60;3.60;;;;;;;;;;109891;1285;22115;-76
2023/01/19 09:51:45;;;;;;;10.60;3.50;;;;;;;;;;109874;1262;22467;-76
2023/01/19 09:54:32;;;;;;;14.50;4.90;;;;;;;;;;109808;1285;22172;-76
2023/01/19 09:57:10;;;;;;;12.00;4.30;;;;;;;;;;109871;1285;23034;-76
2023/01/19 09:59:58;;;;;;;;;;;;;;;;;;;;;
2023/01/19 10:02:30;;;;;;;11.80;4.10;;;;;;;;;;109869;1267;22217;-76
2023/01/19 10:12:23;;;;;;;12.70;3.90;;;;;;;;;;109850;1255;22784;-76
2023/01/19 10:32:59;;;;;;;12.40;3.40;;;;;;;;;;109252;1293;22044;-76
2023/01/19 10:35:29;;;;;;;12.00;3.60;;;;;;;;;;109419;1275;22195;-76
2023/01/19 10:38:00;;;;;;;12.60;4.20;;;;;;;;;;107821;1292;1868762;-76
2023/01/19 10:40:29;;;;;;;13.90;4.20;;;;;;;;;;109328;1292;23130;-77
2023/01/19 10:42:57;;;;;;;10.30;3.20;;;;;;;;;;109385;1292;22190;-76
2023/01/19 10:45:28;;;;;;;22.10;8.40;;;;;;;;;;109471;1276;22240;-76
2023/01/19 10:48:03;;;;;;;14.30;4.40;;;;;;;;;;109276;1292;22206;-77
2023/01/19 10:50:36;;;;;;;11.80;3.60;;;;;;;;;;109298;1292;22152;-76
2023/01/19 10:53:05;;;;;;;14.50;3.70;;;;;;;;;;109278;1292;22032;-76
2023/01/19 10:55:36;;;;;;;8.70;3.30;;;;;;;;;;109579;1270;22981;-76
2023/01/19 10:58:05;;;;;;;9.10;3.40;;;;;;;;;;109751;1288;22134;-76
2023/01/19 11:00:32;;;;;;;9.90;2.40;;;;;;;;;;109670;1288;22184;-76
2023/01/19 11:02:59;;;;;;;7.00;2.00;;;;;;;;;;110040;1281;22130;-76
2023/01/19 11:05:29;;;;;;;7.90;2.50;;;;;;;;;;110280;1259;22106;-76
2023/01/19 11:07:59;;;;;;;7.20;2.10;;;;;;;;;;110107;1280;22111;-76
2023/01/19 11:10:27;;;;;;;13.00;2.40;;;;;;;;;;110224;1280;22107;-76
2023/01/19 11:12:55;;;;;;;8.20;1.80;;;;;;;;;;110239;1280;22158;-76
2023/01/19 11:15:28;;;;;;;6.60;1.60;;;;;;;;;;110176;1262;23021;-76
2023/01/19 11:17:56;;;;;;;4.30;1.00;;;;;;;;;;110064;1281;22197;-76
2023/01/19 11:20:45;;;;;;;6.80;1.50;;;;;;;;;;110081;1281;22131;-76
2023/01/19 11:23:26;;;;;;;12.00;1.90;;;;;;;;;;110066;1281;22132;-76
2023/01/19 11:25:57;;;;;;;9.20;2.50;;;;;;;;;;110218;1260;22196;-76
2023/01/19 11:28:37;;;;;;;9.80;2.50;;;;;;;;;;110147;1280;22100;-76
2023/01/19 11:31:18;;;;;;;11.20;2.30;;;;;;;;;;110128;1280;22110;-76
2023/01/19 11:33:49;;;;;;;11.80;3.00;;;;;;;;;;110102;1280;22302;-78
2023/01/19 11:36:20;;;;;;;10.00;2.30;;;;;;;;;;110307;1262;22111;-76
2023/01/19 11:38:51;;;;;;;11.10;3.30;;;;;;;;;;110093;1281;22146;-76
2023/01/19 11:41:21;;;;;;;18.10;5.60;;;;;;;;;;110074;1281;22110;-76
2023/01/19 11:43:53;;;;;;;20.70;5.80;;;;;;;;;;110062;1281;22570;-76
2023/01/19 11:46:25;;;;;;;14.40;4.30;;;;;;;;;;110221;1262;22026;-76
2023/01/19 11:49:02;;;;;;;19.10;5.00;;;;;;;;;;110136;1280;22154;-76
2023/01/19 11:51:35;;;;;;;21.20;7.60;;;;;;;;;;110150;1280;22841;-76
2023/01/19 11:54:12;;;;;;;11.50;4.70;;;;;;;;;;110143;1280;21856;-76
2023/01/19 11:56:42;;;;;;;11.40;3.40;;;;;;;;;;110196;1264;22451;-77
2023/01/19 11:59:12;;;;;;;10.70;3.90;;;;;;;;;;110077;1281;22730;-76
2023/01/19 12:01:45;;;;;;;15.90;5.60;;;;;;;;;;110066;1281;22400;-76
2023/01/19 12:04:17;;;;;;;13.50;4.20;;;;;;;;;;110089;1281;22848;-76
2023/01/19 12:06:51;;;;;;;9.90;3.20;;;;;;;;;;110119;1262;22124;-77
2023/01/19 12:09:29;;;;;;;8.10;2.60;;;;;;;;;;110124;1280;22144;-76
2023/01/19 12:12:03;;;;;;;8.80;2.10;;;;;;;;;;110115;1280;22304;-78
2023/01/19 12:14:50;;;;;;;8.80;2.50;;;;;;;;;;110111;1280;22739;-76
2023/01/19 12:17:26;;;;;;;8.00;2.50;;;;;;;;;;110327;1262;21995;-77
2023/01/19 12:27:04;;;;;;;9.60;3.30;;;;;;;;;;103819;1295;545820;-82
2023/01/19 12:29:32;;;;;;;10.50;3.90;;;;;;;;;;106353;1280;25372;-78
2023/01/19 12:32:15;;;;;;;10.50;2.80;;;;;;;;;;106494;1276;24255;-78
2023/01/19 12:34:56;;;;;;;;;;;;;;;;;;;;;
2023/01/19 12:37:32;;;;;;;8.90;2.40;;;;;;;;;;106630;1266;22551;-77
2023/01/19 12:40:00;;;;;;;9.90;2.40;;;;;;;;;;105190;1281;1946174;-77
2023/01/19 12:42:28;;;;;;;8.70;2.90;;;;;;;;;;106699;1279;22509;-77
2023/01/19 12:45:12;;;;;;;11.40;2.90;;;;;;;;;;106571;1279;22944;-77
2023/01/19 12:48:00;;;;;;;8.60;2.50;;;;;;;;;;106433;1273;23876;-77
2023/01/19 12:50:31;;;;;;;10.40;2.60;;;;;;;;;;106619;1278;25501;-76
2023/01/19 12:53:02;;;;;;;10.90;3.50;;;;;;;;;;106592;1273;25280;-77
2023/01/19 12:55:33;;;;;;;12.40;3.40;;;;;;;;;;106560;1274;25239;-79
2023/01/19 12:58:05;;;;;;;12.90;3.90;;;;;;;;;;106656;1263;22666;-78
2023/01/19 13:00:48;;;;;;;15.80;5.50;;;;;;;;;;106425;1275;23003;-77
2023/01/19 13:03:28;;;;;;;;;;;;;;;;;;;;;
2023/01/19 13:06:05;;;;;;;13.00;4.30;;;;;;;;;;107325;1266;25230;-77
2023/01/19 13:08:54;;;;;;;17.70;6.40;;;;;;;;;;107194;1269;22499;-81
2023/01/19 13:11:24;;;;;;;18.80;5.50;;;;;;;;;;107154;1267;22610;-77
2023/01/19 13:13:57;;;;;;;12.20;3.70;;;;;;;;;;107107;1272;22540;-80
2023/01/19 13:16:47;;;;;;;11.60;3.50;;;;;;;;;;106941;1268;25331;-80
2023/01/19 13:19:35;;;;;;;11.40;3.20;;;;;;;;;;106913;1264;24198;-79
2023/01/19 13:22:44;;;;;;;10.80;3.60;;;;;;;;;;106980;1275;22573;-78
2023/01/19 13:25:12;;;;;;;10.20;3.60;;;;;;;;;;106676;1273;22559;-79
2023/01/19 13:27:50;;;;;;;11.10;3.50;;;;;;;;;;106539;1273;22532;-79
2023/01/19 13:30:26;;;;;;;80.50;54.60;;;;;;;;;;106342;1281;24896;-77
2023/01/19 13:33:08;;;;;;;16.20;8.90;;;;;;;;;;106546;1278;22996;-78
2023/01/19 13:35:35;;;;;;;12.40;4.90;;;;;;;;;;106693;1273;22634;-77
2023/01/19 13:38:06;;;;;;;17.40;8.60;;;;;;;;;;106532;1265;24242;-76
2023/01/19 13:40:44;;;;;;;19.40;7.90;;;;;;;;;;106440;1275;22540;-81
2023/01/19 13:43:38;;;;;;;24.70;11.70;;;;;;;;;;106449;1277;25415;-80
2023/01/19 13:46:26;;;;;;;19.80;9.10;;;;;;;;;;106438;1278;22591;-78
2023/01/19 13:49:20;;;;;;;22.90;13.00;;;;;;;;;;106642;1279;24175;-78
2023/01/19 13:52:54;;;;;;;15.60;6.80;;;;;;;;;;106896;1278;22579;-78
2023/01/19 13:55:37;;;;;;;40.40;15.80;;;;;;;;;;106743;1275;24225;-80
2023/01/19 13:58:42;;;;;;;30.50;13.70;;;;;;;;;;107103;1257;25290;-76
2023/01/19 14:01:21;;;;;;;32.70;14.70;;;;;;;;;;106623;1273;23861;-78
2023/01/19 14:03:54;;;;;;;22.70;8.00;;;;;;;;;;106691;1278;25221;-77
2023/01/19 14:06:41;;;;;;;21.10;8.40;;;;;;;;;;106344;1263;25436;-78
2023/01/19 14:09:18;;;;;;;27.80;12.30;;;;;;;;;;106335;1273;22674;-79
2023/01/19 14:12:34;;;;;;;21.50;6.60;;;;;;;;;;106548;1274;22538;-78
2023/01/19 14:15:24;;;;;;;17.60;7.60;;;;;;;;;;106114;1280;25364;-77
2023/01/19 14:18:28;;;;;;;23.60;11.00;;;;;;;;;;105985;1287;22609;-83
2023/01/19 14:20:57;;;;;;;18.70;8.00;;;;;;;;;;106174;1277;22545;-77
2023/01/19 14:23:39;;;;;;;21.80;9.30;;;;;;;;;;106083;1280;22645;-76
2023/01/19 14:26:33;;;;;;;28.70;13.30;;;;;;;;;;106036;1286;25355;-78
2023/01/19 14:29:30;;;;;;;;;;;;;;;;;;;;;
2023/01/19 14:32:16;;;;;;;29.30;12.40;;;;;;;;;;105707;1292;22514;-76
2023/01/19 14:35:12;;;;;;;41.30;15.50;;;;;;;;;;105695;1286;24203;-79
2023/01/19 14:39:05;;;;;;;27.90;10.20;;;;;;;;;;105966;1289;22549;-77
2023/01/19 14:42:06;;;;;;;21.60;6.80;;;;;;;;;;105835;1289;24253;-77
2023/01/19 14:45:42;;;;;;;15.80;5.80;;;;;;;;;;105739;1289;22539;-77
2023/01/19 14:48:28;;;;;;;18.50;5.50;;;;;;;;;;105807;1289;23823;-78
2023/01/19 14:54:57;;;;;;;16.60;4.80;;;;;;;;;;106398;1281;22553;-76
2023/01/19 14:57:43;;;;;;;13.60;4.40;;;;;;;;;;106017;1284;24378;-77
2023/01/19 15:03:38;;;;;;;;;;;;;;;;;;;;;
2023/01/19 15:06:50;;;;;;;;;;;;;;;;;;;;;
2023/01/19 15:09:49;;;;;;;23.60;9.10;;;;;;;;;;106288;1274;22794;-77
2023/01/19 15:12:35;;;;;;;61.90;16.20;;;;;;;;;;106437;1263;22654;-77
2023/01/19 15:15:17;;;;;;;47.40;15.00;;;;;;;;;;106441;1279;25024;-76
2023/01/19 15:18:04;;;;;;;67.40;18.20;;;;;;;;;;106543;1276;22870;-77
2023/01/19 15:20:50;;;;;;;82.60;21.70;;;;;;;;;;106481;1273;24082;-76
2023/01/19 15:23:40;;;;;;;48.70;15.50;;;;;;;;;;106509;1273;24374;-75
2023/01/19 15:27:09;;;;;;;52.00;14.60;;;;;;;;;;106533;1281;24212;-76
2023/01/19 15:29:44;;;;;;;44.20;14.20;;;;;;;;;;106554;1279;25620;-81
2023/01/19 15:32:14;;;;;;;41.30;11.80;;;;;;;;;;106429;1281;23913;-80
2023/01/19 15:36:07;;;;;;;35.20;9.70;;;;;;;;;;107013;1274;25233;-80
2023/01/19 15:38:32;;;;;;;40.60;12.90;;;;;;;;;;107139;1270;23078;-76
2023/01/19 15:41:13;;;;;;;;;;;;;;;;;;;;;
2023/01/19 15:44:03;;;;;;;;;;;;;;;;;;;;;
2023/01/19 15:47:27;;;;;;;;;;;;;;;;;;;;;
2023/01/19 15:50:42;;;;;;;;;;;;;;;;;;;;;
2023/01/19 15:53:53;;;;;;;53.80;15.90;;;;;;;;;;106936;1270;25342;-76
2023/01/19 15:56:42;;;;;;;43.80;14.50;;;;;;;;;;106703;1275;25240;-76
2023/01/19 15:59:22;;;;;;;45.00;15.60;;;;;;;;;;106459;1276;24483;-77
2023/01/19 16:02:55;;;;;;;48.00;15.50;;;;;;;;;;106450;1264;25191;-77
2023/01/19 16:06:03;;;;;;;54.70;16.60;;;;;;;;;;110272;1279;23006;-76
2023/01/19 16:08:24;;;;;;;;;;;;;;;;;;;;;
2023/01/19 16:11:17;;;;;;;67.50;25.00;;;;;;;;;;110144;1279;22242;-76
2023/01/19 16:14:13;;;;;;;80.10;23.70;;;;;;;;;;110396;1260;22124;-76
2023/01/19 16:16:43;;;;;;;62.00;24.00;;;;;;;;;;110602;1266;22319;-76
2023/01/19 16:19:30;;;;;;;71.20;25.80;;;;;;;;;;110554;1270;22166;-76
2023/01/19 16:22:28;;;;;;;57.90;24.80;;;;;;;;;;110643;1254;22249;-76
2023/01/19 16:32:37;;;;;;;;;;;;;;;;;;;;;
2023/01/19 16:35:05;;;;;;;101.50;38.80;;;;;;;;;;110099;1281;22172;-74
2023/01/19 16:37:42;;;;;;;110.10;41.60;;;;;;;;;;110064;1281;22169;-74
2023/01/19 16:40:38;;;;;;;109.60;40.60;;;;;;;;;;110020;1281;22158;-74
2023/01/19 16:43:35;;;;;;;111.70;41.80;;;;;;;;;;110214;1263;22164;-74
2023/01/19 16:46:03;;;;;;;121.00;40.70;;;;;;;;;;110098;1281;22924;-75
2023/01/19 16:48:31;;;;;;;124.50;40.70;;;;;;;;;;110094;1281;22201;-75
2023/01/19 16:51:58;;;;;;;;;;;;;;;;;;;;;
2023/01/19 16:54:59;;;;;;;114.60;39.20;;;;;;;;;;110184;1261;22321;-76
2023/01/19 16:57:30;;;;;;;104.10;36.70;;;;;;;;;;110039;1281;22174;-75
2023/01/19 16:59:57;;;;;;;85.00;31.20;;;;;;;;;;110092;1281;22762;-74
2023/01/19 17:02:27;;;;;;;89.10;32.70;;;;;;;;;;110104;1281;22172;-75
2023/01/19 17:04:54;;;;;;;147.20;52.20;;;;;;;;;;110326;1264;22246;-77
2023/01/19 17:07:21;;;;;;;171.40;60.40;;;;;;;;;;110640;1273;23051;-77
2023/01/19 17:09:59;;;;;;;;;;;;;;;;;;;;;
2023/01/19 17:13:18;;;;;;;156.90;53.40;;;;;;;;;;110251;1256;22336;-78
2023/01/19 17:19:31;;;;;;;126.80;42.10;;;;;;;;;;110198;1279;22792;-75
2023/01/19 17:21:58;;;;;;;108.00;36.60;;;;;;;;;;110106;1279;22177;-76
2023/01/19 17:24:25;;;;;;;97.90;34.20;;;;;;;;;;110210;1260;22753;-74
2023/01/19 17:26:52;;;;;;;92.00;33.60;;;;;;;;;;110124;1279;22238;-75
2023/01/19 17:29:18;;;;;;;77.50;29.00;;;;;;;;;;110142;1279;22152;-75
2023/01/19 17:31:45;;;;;;;78.00;28.50;;;;;;;;;;110093;1279;22158;-75
2023/01/19 17:34:12;;;;;;;64.00;22.80;;;;;;;;;;110246;1261;22177;-74
2023/01/19 17:36:39;;;;;;;59.40;20.70;;;;;;;;;;110210;1279;22412;-75
2023/01/19 17:39:07;;;;;;;62.10;21.80;;;;;;;;;;110262;1279;22858;-74
2023/01/19 17:41:34;;;;;;;57.10;21.00;;;;;;;;;;110288;1268;22178;-77
2023/01/19 17:44:02;;;;;;;54.00;20.50;;;;;;;;;;110515;1251;22599;-74
2023/01/19 17:46:33;;;;;;;52.60;19.60;;;;;;;;;;110774;1273;22570;-75
2023/01/19 17:49:01;;;;;;;51.00;18.20;;;;;;;;;;110780;1273;22199;-75
2023/01/19 17:51:53;;;;;;;58.50;21.40;;;;;;;;;;110658;1273;22103;-76
2023/01/19 17:54:30;;;;;;;51.80;16.00;;;;;;;;;;110597;1255;22174;-75
2023/01/19 17:56:59;;;;;;;42.20;15.60;;;;;;;;;;110750;1273;22132;-75
2023/01/19 18:06:52;;;;;;;43.00;14.60;;;;;;;;;;110002;1259;22197;-75
2023/01/19 18:09:26;;;;;;;44.30;16.10;;;;;;;;;;110011;1279;22261;-75
2023/01/19 18:12:14;;;;;;;43.00;17.40;;;;;;;;;;110035;1282;22263;-75
2023/01/19 18:14:44;;;;;;;43.40;17.40;;;;;;;;;;109996;1282;22371;-76
2023/01/19 18:17:15;;;;;;;39.00;15.80;;;;;;;;;;109980;1271;22194;-76
2023/01/19 18:19:48;;;;;;;41.40;17.60;;;;;;;;;;109985;1282;22212;-76
2023/01/19 18:22:31;;;;;;;49.90;19.10;;;;;;;;;;110026;1283;22196;-75
2023/01/19 18:25:38;;;;;;;44.00;17.00;;;;;;;;;;110009;1259;23084;-76
2023/01/19 18:28:15;;;;;;;39.10;15.20;;;;;;;;;;109985;1283;22176;-76
2023/01/19 18:30:44;;;;;;;36.90;14.60;;;;;;;;;;110014;1282;23051;-76
2023/01/19 18:33:16;;;;;;;39.30;14.70;;;;;;;;;;109996;1282;22997;-76
2023/01/19 18:36:02;;;;;;;33.30;12.60;;;;;;;;;;110077;1259;22175;-77
2023/01/19 18:38:52;;;;;;;37.00;15.00;;;;;;;;;;110050;1276;23056;-76
2023/01/19 18:41:40;;;;;;;35.40;15.40;;;;;;;;;;110194;1276;22146;-76
2023/01/19 18:44:13;;;;;;;37.10;15.30;;;;;;;;;;110482;1276;22118;-74
2023/01/19 18:46:39;;;;;;;39.10;15.50;;;;;;;;;;110868;1253;22162;-75
2023/01/19 18:49:06;;;;;;;49.80;18.50;;;;;;;;;;110588;1275;22184;-76
2023/01/19 18:51:38;;;;;;;48.80;19.00;;;;;;;;;;110591;1274;22872;-75
2023/01/19 18:58:00;;;;;;;59.80;23.00;;;;;;;;;;110262;1258;22255;-74
2023/01/19 19:00:27;;;;;;;64.60;25.20;;;;;;;;;;110047;1281;22820;-74
2023/01/19 19:06:42;;;;;;;67.60;24.50;;;;;;;;;;109942;1266;22232;-74
2023/01/19 19:09:19;;;;;;;;;;;;;;;;;;;;;
2023/01/19 19:16:25;;;;;;;105.60;34.60;;;;;;;;;;109662;1266;22187;-75
2023/01/19 19:19:14;;;;;;;101.90;37.30;;;;;;;;;;109376;1289;22313;-75
2023/01/19 19:22:14;;;;;;;99.40;37.50;;;;;;;;;;109607;1289;22238;-75
2023/01/19 19:24:57;;;;;;;113.10;40.70;;;;;;;;;;109462;1289;23050;-75
2023/01/19 19:27:36;;;;;;;117.90;40.40;;;;;;;;;;109719;1267;22231;-75
2023/01/19 19:30:12;;;;;;;98.30;37.00;;;;;;;;;;109796;1286;22197;-75
2023/01/19 19:33:22;;;;;;;;;;;;;;;;;;;;;
2023/01/19 19:35:54;;;;;;;101.10;35.10;;;;;;;;;;109752;1283;22174;-75
2023/01/19 19:38:25;;;;;;;96.00;35.00;;;;;;;;;;110355;1262;22178;-76
2023/01/19 19:40:56;;;;;;;99.80;35.50;;;;;;;;;;110065;1281;22151;-76
2023/01/19 19:43:27;;;;;;;99.90;36.20;;;;;;;;;;110319;1275;22165;-76
2023/01/19 19:46:25;;;;;;;;;;;;;;;;;;;;;
2023/01/19 19:56:02;;;;;;;85.00;29.90;;;;;;;;;;109911;1285;22213;-74
2023/01/19 19:59:11;;;;;;;82.10;28.70;;;;;;;;;;109731;1270;22211;-75
2023/01/19 20:01:52;;;;;;;88.20;28.30;;;;;;;;;;109691;1289;22395;-75
2023/01/19 20:04:21;;;;;;;75.40;24.40;;;;;;;;;;109699;1289;22239;-75
2023/01/19 20:06:48;;;;;;;55.90;18.80;;;;;;;;;;109712;1288;22337;-75
2023/01/19 20:09:15;;;;;;;45.60;17.00;;;;;;;;;;109796;1270;22192;-75
2023/01/19 20:11:43;;;;;;;49.10;17.30;;;;;;;;;;109633;1289;21720;-75
2023/01/19 20:14:11;;;;;;;54.60;20.60;;;;;;;;;;109510;1289;22165;-74
2023/01/19 20:16:38;;;;;;;56.30;20.80;;;;;;;;;;109645;1289;22184;-75
2023/01/19 20:26:31;;;;;;;32.80;13.80;;;;;;;;;;109297;1294;22121;-75
2023/01/19 20:29:01;;;;;;;33.20;13.20;;;;;;;;;;109515;1271;22300;-74
2023/01/19 20:31:56;;;;;;;33.70;12.20;;;;;;;;;;109932;1284;22228;-75
2023/01/19 20:34:25;;;;;;;47.60;16.80;;;;;;;;;;109875;1284;22183;-74
2023/01/19 20:36:53;;;;;;;84.30;22.90;;;;;;;;;;109897;1284;22184;-75
2023/01/19 20:39:22;;;;;;;84.40;22.40;;;;;;;;;;110148;1259;22196;-75
2023/01/19 20:41:51;;;;;;;95.50;28.10;;;;;;;;;;110002;1283;22176;-75
2023/01/19 20:48:14;;;;;;;67.60;22.40;;;;;;;;;;109636;1265;22393;-75
2023/01/19 20:50:42;;;;;;;47.80;18.70;;;;;;;;;;109644;1289;22928;-75
2023/01/19 20:53:09;;;;;;;44.90;16.60;;;;;;;;;;109682;1289;22172;-75
2023/01/19 20:55:36;;;;;;;35.40;13.80;;;;;;;;;;109638;1289;22170;-74
2023/01/19 20:58:03;;;;;;;32.50;13.20;;;;;;;;;;109621;1288;22411;-75
2023/01/19 21:00:30;;;;;;;34.40;12.30;;;;;;;;;;109874;1265;22496;-76
2023/01/19 21:02:57;;;;;;;39.30;13.40;;;;;;;;;;109929;1284;23007;-75
2023/01/19 21:05:24;;;;;;;44.70;14.50;;;;;;;;;;109878;1284;22148;-75
2023/01/19 21:07:52;;;;;;;36.40;13.30;;;;;;;;;;109954;1284;22095;-75